Time;durP1;ratioP1;P1;durP2;ratioP2;P2;SDS_P1;SDS_P2;PMS_P1;PMS_P2;Temp;Humidity;BMP_temperature;BMP_pressure;BME280_temperature;BME280_humidity;BME280_pressure;Samples;Min_cycle;Max_cycle;Signal;HPM_P1;HPM_P2
2022/03/10 00:01:15;;;;;;;13.43;10.63;;;;;;;2.17;53.02;101149.56;5037863;28;20052;-84
2022/03/10 00:03:42;;;;;;;13.18;8.75;;;;;;;2.12;52.68;101143.97;5037641;28;20058;-82
2022/03/10 00:06:14;;;;;;;12.27;9.30;;;;;;;2.09;52.48;101157.34;5025290;28;20061;-83
2022/03/10 00:08:42;;;;;;;15.13;9.90;;;;;;;2.06;52.48;101155.06;5017714;28;20058;-83
2022/03/10 00:11:09;;;;;;;13.02;9.10;;;;;;;2.09;52.40;101154.59;5024691;28;20060;-84
2022/03/10 00:13:36;;;;;;;14.18;9.68;;;;;;;2.05;52.98;101153.41;5027606;28;20057;-83
2022/03/10 00:16:04;;;;;;;15.25;9.90;;;;;;;2.06;52.61;101155.91;5034679;28;20041;-83
2022/03/10 00:18:32;;;;;;;13.57;9.43;;;;;;;2.08;52.84;101161.16;5037525;28;20068;-83
2022/03/10 00:20:59;;;;;;;13.73;9.80;;;;;;;2.09;53.22;101160.91;5034463;28;20478;-82
2022/03/10 00:23:28;;;;;;;12.82;9.55;;;;;;;2.06;53.52;101157.81;5018129;28;20422;-84
2022/03/10 00:25:56;;;;;;;14.73;9.85;;;;;;;2.09;53.44;101160.91;5019796;28;20050;-83
2022/03/10 00:28:23;;;;;;;15.05;9.43;;;;;;;2.09;53.77;101165.59;5017199;28;20050;-83
2022/03/10 00:30:50;;;;;;;14.35;10.25;;;;;;;2.07;54.41;101178.72;5031338;28;20053;-83
2022/03/10 00:33:18;;;;;;;16.88;10.80;;;;;;;2.06;54.68;101177.03;5032110;28;20042;-83
2022/03/10 00:35:46;;;;;;;13.13;9.93;;;;;;;2.06;54.94;101185.28;5017884;28;20056;-84
2022/03/10 00:38:13;;;;;;;13.50;9.32;;;;;;;2.05;54.45;101184.44;5028435;28;20057;-83
2022/03/10 00:40:42;;;;;;;13.27;9.45;;;;;;;2.03;53.86;101192.94;5024706;28;20066;-83
2022/03/10 00:43:11;;;;;;;14.43;10.65;;;;;;;1.98;54.36;101192.00;5032229;28;20413;-83
2022/03/10 00:45:39;;;;;;;12.35;8.98;;;;;;;1.97;54.50;101190.31;5035536;28;20060;-83
2022/03/10 00:48:07;;;;;;;13.18;9.20;;;;;;;1.96;54.13;101186.72;5036392;28;20056;-84
2022/03/10 00:50:34;;;;;;;14.40;10.10;;;;;;;1.94;53.65;101190.81;5021032;28;20497;-83
2022/03/10 00:53:01;;;;;;;16.17;9.75;;;;;;;1.92;54.15;101192.94;5017489;28;20054;-83
2022/03/10 00:55:29;;;;;;;13.43;9.25;;;;;;;1.88;54.07;101183.50;5016607;28;20049;-82
2022/03/10 00:57:57;;;;;;;13.55;9.60;;;;;;;1.89;53.30;101183.28;5017886;28;20053;-83
2022/03/10 01:00:28;;;;;;;14.27;9.57;;;;;;;1.86;53.91;101193.91;5028131;28;20049;-83
2022/03/10 01:02:55;;;;;;;14.40;9.55;;;;;;;1.83;53.98;101197.97;5031892;28;20045;-82
2022/03/10 01:05:22;;;;;;;13.93;9.88;;;;;;;1.79;53.89;101194.84;5036945;28;20401;-83
2022/03/10 01:07:50;;;;;;;12.68;9.23;;;;;;;1.79;53.58;101185.78;5036644;28;20057;-83
2022/03/10 01:10:19;;;;;;;14.27;9.30;;;;;;;1.73;54.43;101190.31;5034104;28;20490;-83
2022/03/10 01:12:47;;;;;;;12.18;9.70;;;;;;;1.74;53.92;101188.41;5034540;28;20061;-83
2022/03/10 01:15:19;;;;;;;15.52;9.65;;;;;;;1.72;54.35;101182.31;5024619;28;20069;-83
2022/03/10 01:17:46;;;;;;;14.15;9.57;;;;;;;1.70;54.10;101189.94;5023130;28;20506;-83
2022/03/10 01:20:14;;;;;;;13.68;10.15;;;;;;;1.70;54.38;101189.94;5016849;28;20398;-83
2022/03/10 01:22:41;;;;;;;15.88;10.77;;;;;;;1.70;54.15;101187.19;5022384;28;20049;-83
2022/03/10 01:25:10;;;;;;;17.17;11.02;;;;;;;1.60;54.54;101185.06;5026123;28;20050;-83
2022/03/10 01:27:38;;;;;;;17.23;12.00;;;;;;;1.57;54.57;101183.59;5017301;28;20415;-82
2022/03/10 01:30:07;;;;;;;14.50;10.52;;;;;;;1.57;54.41;101174.53;5020645;28;20068;-83
2022/03/10 01:32:36;;;;;;;16.17;11.05;;;;;;;1.55;55.09;101182.16;5024852;28;20053;-82
2022/03/10 01:35:04;;;;;;;18.23;11.90;;;;;;;1.57;54.83;101175.34;5016822;28;20057;-82
2022/03/10 01:37:36;;;;;;;17.63;11.02;;;;;;;1.54;55.04;101183.25;5020216;28;20054;-82
2022/03/10 01:40:04;;;;;;;14.68;9.80;;;;;;;1.51;55.23;101187.31;5027849;28;20560;-82
2022/03/10 01:42:32;;;;;;;15.80;10.43;;;;;;;1.51;55.02;101183.72;5035805;28;20061;-82
2022/03/10 01:44:59;;;;;;;15.43;9.77;;;;;;;1.53;55.50;101187.06;5034275;28;20053;-83
2022/03/10 01:47:26;;;;;;;16.85;11.23;;;;;;;1.49;55.57;101186.72;5035345;28;20049;-82
2022/03/10 01:49:55;;;;;;;13.93;10.27;;;;;;;1.46;55.17;101189.91;5035823;28;20069;-82
2022/03/10 01:52:22;;;;;;;16.23;10.73;;;;;;;1.44;55.48;101183.81;5033781;28;20069;-83
2022/03/10 01:54:50;;;;;;;14.07;10.18;;;;;;;1.44;55.37;101172.84;5035651;28;20068;-83
2022/03/10 01:57:18;;;;;;;14.95;9.95;;;;;;;1.42;55.10;101172.25;5034603;28;20053;-83
2022/03/10 01:59:45;;;;;;;15.48;10.00;;;;;;;1.40;54.84;101169.72;5021635;28;20057;-83
2022/03/10 02:02:13;;;;;;;14.88;9.85;;;;;;;1.39;55.73;101170.81;5025746;28;20065;-83
2022/03/10 02:04:41;;;;;;;13.55;10.13;;;;;;;1.34;55.95;101175.34;5030568;28;20068;-83
2022/03/10 02:10:16;;;;;;;13.27;9.25;;;;;;;1.32;55.42;101166.50;5036266;28;20053;-83
2022/03/10 02:12:43;;;;;;;15.55;9.90;;;;;;;1.21;55.80;101166.22;5024711;28;20069;-83
2022/03/10 02:18:00;;;;;;;13.52;9.60;;;;;;;1.18;55.29;101169.47;5046665;28;20046;-83
2022/03/10 02:20:28;;;;;;;18.65;9.60;;;;;;;1.17;55.72;101167.78;5042113;28;20065;-84
2022/03/10 02:22:59;;;;;;;14.70;9.00;;;;;;;1.16;55.70;101168.84;5042394;28;20054;-83
2022/03/10 02:25:28;;;;;;;15.63;10.05;;;;;;;1.10;55.60;101169.78;5042017;28;20069;-83
2022/03/10 02:27:57;;;;;;;13.82;9.52;;;;;;;1.10;55.83;101174.44;5032000;28;20057;-84
2022/03/10 02:30:28;;;;;;;16.50;9.50;;;;;;;1.09;56.21;101179.13;5035279;28;20049;-83
2022/03/10 02:32:55;;;;;;;11.98;8.73;;;;;;;1.07;55.80;101175.75;5042200;28;20056;-83
2022/03/10 02:35:22;;;;;;;14.40;9.07;;;;;;;1.05;55.95;101169.69;5041901;28;20053;-83
2022/03/10 02:37:50;;;;;;;16.55;10.38;;;;;;;1.04;55.78;101168.00;5031328;28;20071;-83
2022/03/10 02:40:19;;;;;;;13.30;10.00;;;;;;;1.01;56.42;101165.72;5028493;28;20045;-83
2022/03/10 02:42:46;;;;;;;11.73;8.98;;;;;;;0.98;56.78;101174.41;5029067;28;20057;-83
2022/03/10 02:45:13;;;;;;;14.57;9.68;;;;;;;0.97;56.55;101170.84;5022586;28;20073;-83
2022/03/10 02:47:41;;;;;;;14.27;10.05;;;;;;;0.93;56.72;101169.63;5040622;28;20068;-82
2022/03/10 02:50:09;;;;;;;13.00;9.85;;;;;;;0.95;56.44;101161.16;5042361;28;20049;-83
2022/03/10 02:52:37;;;;;;;15.88;10.82;;;;;;;0.87;56.70;101166.97;5041544;28;20041;-83
2022/03/10 02:55:06;;;;;;;13.45;10.07;;;;;;;0.88;56.18;101158.50;5041514;28;20061;-83
2022/03/10 02:57:37;;;;;;;15.20;10.20;;;;;;;0.88;55.98;101166.72;5041978;28;20052;-83
2022/03/10 03:00:06;;;;;;;13.82;9.85;;;;;;;0.87;56.18;101158.75;5040795;28;20049;-82
2022/03/10 03:02:34;;;;;;;14.47;10.47;;;;;;;0.80;56.15;101161.59;5039805;28;20453;-82
2022/03/10 03:05:01;;;;;;;14.70;9.85;;;;;;;0.82;56.57;101156.72;5042080;28;20050;-83
2022/03/10 03:07:28;;;;;;;19.00;11.57;;;;;;;0.75;56.79;101151.31;5041679;28;20060;-84
2022/03/10 03:09:57;;;;;;;16.20;10.48;;;;;;;0.77;56.54;101160.13;5041349;28;20049;-84
2022/03/10 03:12:24;;;;;;;15.40;9.93;;;;;;;0.80;56.80;101162.44;5041397;28;20049;-83
2022/03/10 03:14:54;;;;;;;14.90;11.80;;;;;;;0.78;57.10;101150.84;5023898;28;20045;-83
2022/03/10 03:17:21;;;;;;;16.55;11.02;;;;;;;0.79;56.91;101147.03;5040347;28;20045;-83
2022/03/10 03:19:49;;;;;;;13.85;9.85;;;;;;;0.78;57.21;101150.84;5041632;28;20057;-83
2022/03/10 03:22:16;;;;;;;12.85;8.85;;;;;;;0.81;56.88;101155.84;5041511;28;20053;-83
2022/03/10 03:24:45;;;;;;;15.00;9.90;;;;;;;0.79;56.69;101152.50;5022347;28;20058;-83
2022/03/10 03:27:12;;;;;;;13.18;9.80;;;;;;;0.78;56.71;101156.34;5033854;28;20486;-82
2022/03/10 03:29:39;;;;;;;12.65;9.27;;;;;;;0.74;57.14;101160.63;5038462;28;20489;-84
2022/03/10 03:32:09;;;;;;;13.45;9.25;;;;;;;0.71;57.19;101166.53;5036059;28;20060;-83
2022/03/10 03:34:36;;;;;;;12.75;9.18;;;;;;;0.69;56.78;101159.63;5018552;28;20153;-83
2022/03/10 03:37:04;;;;;;;15.82;9.75;;;;;;;0.67;57.10;101159.00;5018880;28;20064;-83
2022/03/10 03:39:32;;;;;;;14.35;10.18;;;;;;;0.66;57.30;101160.94;5019143;28;20061;-83
2022/03/10 03:41:59;;;;;;;14.68;10.00;;;;;;;0.67;57.16;101159.84;5019113;28;20384;-83
2022/03/10 03:44:26;;;;;;;15.00;10.05;;;;;;;0.66;56.89;101158.19;5028126;28;20050;-83
2022/03/10 03:46:54;;;;;;;13.65;9.68;;;;;;;0.62;57.23;101161.63;5028835;28;20486;-83
2022/03/10 03:49:23;;;;;;;13.85;9.77;;;;;;;0.60;56.87;101161.84;5021351;28;20058;-82
2022/03/10 03:51:50;;;;;;;14.27;10.10;;;;;;;0.58;57.26;101167.56;5018345;28;20058;-83
2022/03/10 03:54:18;;;;;;;13.02;9.15;;;;;;;0.53;57.76;101159.22;5020352;28;20053;-83
2022/03/10 03:56:46;;;;;;;15.30;9.50;;;;;;;0.53;57.39;101169.34;4996675;28;20066;-82
2022/03/10 03:59:13;;;;;;;15.52;9.55;;;;;;;0.50;57.90;101172.53;4983179;28;20046;-83
2022/03/10 04:01:40;;;;;;;14.35;9.15;;;;;;;0.52;57.54;101173.13;4997554;28;20065;-83
2022/03/10 04:04:08;;;;;;;13.23;9.35;;;;;;;0.50;57.42;101167.88;4987111;28;20054;-83
2022/03/10 04:06:36;;;;;;;15.25;9.68;;;;;;;0.50;57.60;101183.50;4997983;28;20058;-82
2022/03/10 04:09:04;;;;;;;15.57;10.30;;;;;;;0.46;57.43;101174.88;4999121;28;20061;-82
2022/03/10 04:11:31;;;;;;;14.43;9.43;;;;;;;0.46;57.39;101176.78;4998572;28;20050;-82
2022/03/10 04:13:58;;;;;;;13.60;9.30;;;;;;;0.45;57.26;101170.47;4987029;28;20377;-83
2022/03/10 04:16:26;;;;;;;15.25;9.85;;;;;;;0.45;57.52;101177.88;4990133;28;20054;-82
2022/03/10 04:18:54;;;;;;;15.60;10.07;;;;;;;0.47;57.72;101175.75;4998756;28;20073;-82
2022/03/10 04:21:21;;;;;;;13.98;9.32;;;;;;;0.39;58.13;101176.88;4999006;28;20050;-83
2022/03/10 04:23:50;;;;;;;14.20;9.25;;;;;;;0.43;57.50;101190.97;4998804;28;20042;-83
2022/03/10 04:26:19;;;;;;;14.60;10.67;;;;;;;0.39;57.55;101183.19;4999275;28;20129;-82
2022/03/10 04:28:47;;;;;;;13.27;9.82;;;;;;;0.35;57.84;101184.72;4997910;28;20057;-81
2022/03/10 04:31:14;;;;;;;12.80;9.05;;;;;;;0.36;57.69;101183.66;4997689;28;20058;-82
2022/03/10 04:33:42;;;;;;;16.13;11.13;;;;;;;0.35;57.74;101187.44;4997944;28;20054;-82
2022/03/10 04:36:09;;;;;;;14.15;9.65;;;;;;;0.34;57.63;101193.19;4996998;28;20058;-83
2022/03/10 04:38:36;;;;;;;16.00;9.88;;;;;;;0.35;58.07;101184.72;4997869;28;20046;-83
2022/03/10 04:41:05;;;;;;;15.77;10.50;;;;;;;0.32;58.09;101185.19;4997087;28;20561;-83
2022/03/10 04:43:32;;;;;;;12.23;8.52;;;;;;;0.30;57.77;101173.63;4989111;28;20053;-83
2022/03/10 04:46:00;;;;;;;16.23;10.88;;;;;;;0.28;58.12;101183.97;4989240;28;20054;-84
2022/03/10 04:48:28;;;;;;;14.73;10.88;;;;;;;0.29;57.85;101193.84;4996764;28;20054;-83
2022/03/10 04:50:55;;;;;;;15.35;10.70;;;;;;;0.30;58.33;101187.31;4987835;28;20081;-82
2022/03/10 04:53:23;;;;;;;16.58;10.68;;;;;;;0.26;58.16;101186.09;4998234;28;20054;-83
2022/03/10 04:55:50;;;;;;;15.80;10.27;;;;;;;0.27;58.15;101187.75;5022188;28;20046;-83
2022/03/10 04:58:19;;;;;;;15.90;10.90;;;;;;;0.29;58.34;101193.00;5037322;28;20060;-83
2022/03/10 05:00:46;;;;;;;15.10;10.55;;;;;;;0.27;58.57;101193.22;5034058;28;20045;-83
2022/03/10 05:03:15;;;;;;;17.42;11.88;;;;;;;0.28;58.88;101188.63;5036550;28;20049;-84
2022/03/10 05:05:42;;;;;;;16.40;11.43;;;;;;;0.27;58.52;101190.50;5029966;28;20053;-83
2022/03/10 05:08:10;;;;;;;14.75;10.25;;;;;;;0.28;58.88;101194.09;5016927;28;20057;-83
2022/03/10 05:10:37;;;;;;;15.95;10.90;;;;;;;0.30;58.86;101198.28;5028143;28;20045;-83
2022/03/10 05:13:05;;;;;;;16.10;10.13;;;;;;;0.24;58.60;101185.50;5037558;28;20061;-83
2022/03/10 05:15:33;;;;;;;18.48;10.95;;;;;;;0.23;59.00;101189.28;5036452;28;20532;-83
2022/03/10 05:18:04;;;;;;;14.88;10.25;;;;;;;0.26;58.82;101190.75;5035469;28;20422;-84
2022/03/10 05:20:32;;;;;;;14.00;10.73;;;;;;;0.25;58.90;101183.56;5034501;28;20053;-83
2022/03/10 05:23:01;;;;;;;18.77;11.35;;;;;;;0.24;59.18;101182.75;5025117;28;20479;-83
2022/03/10 05:25:33;;;;;;;16.52;11.02;;;;;;;0.21;59.61;101180.47;5016715;28;20060;-83
2022/03/10 05:28:00;;;;;;;20.10;11.35;;;;;;;0.22;59.49;101184.88;5020363;28;20056;-83
2022/03/10 05:30:28;;;;;;;17.85;10.52;;;;;;;0.20;59.49;101185.09;5035779;28;20049;-82
2022/03/10 05:32:56;;;;;;;13.93;10.50;;;;;;;0.23;59.50;101185.72;5034773;28;20057;-82
2022/03/10 05:35:26;;;;;;;16.10;10.75;;;;;;;0.20;58.92;101176.03;5035274;28;20410;-82
2022/03/10 05:37:53;;;;;;;18.25;11.02;;;;;;;0.20;59.41;101179.63;5026406;28;20446;-82
2022/03/10 05:40:22;;;;;;;20.63;11.43;;;;;;;0.22;59.58;101171.19;5034730;28;20045;-83
2022/03/10 05:42:52;;;;;;;17.52;10.85;;;;;;;0.21;59.49;101172.25;5016424;28;20054;-83
2022/03/10 05:45:20;;;;;;;;;;;;;;;0.17;61.85;101174.59;5017022;28;20056;-83
2022/03/10 05:47:48;;;;;;;16.20;10.35;;;;;;;0.17;61.48;101176.53;5030709;28;20373;-84
2022/03/10 05:50:18;;;;;;;15.82;10.85;;;;;;;0.19;59.73;101186.19;5017264;28;20046;-82
2022/03/10 05:52:45;;;;;;;16.65;11.15;;;;;;;0.18;59.13;101183.66;5016079;28;20053;-84
2022/03/10 05:55:13;;;;;;;16.75;12.10;;;;;;;0.18;58.97;101194.63;5016814;28;20533;-83
2022/03/10 05:57:41;;;;;;;16.92;11.23;;;;;;;0.18;58.93;101194.63;5035031;28;20053;-84
2022/03/10 06:00:10;;;;;;;16.90;11.38;;;;;;;0.22;58.65;101206.78;5032659;28;20060;-83
2022/03/10 06:02:38;;;;;;;15.38;9.70;;;;;;;0.22;58.94;101212.28;5033710;28;20057;-83
2022/03/10 06:05:06;;;;;;;14.10;10.25;;;;;;;0.26;58.35;101213.50;5031568;28;20061;-83
2022/03/10 06:07:35;;;;;;;16.27;10.68;;;;;;;0.27;58.48;101214.31;5024518;28;20404;-83
2022/03/10 06:10:04;;;;;;;15.50;9.68;;;;;;;0.26;58.42;101224.44;5020500;28;20049;-83
2022/03/10 06:12:32;;;;;;;15.27;10.27;;;;;;;0.28;58.21;101216.00;5020998;28;20501;-83
2022/03/10 06:15:01;;;;;;;14.98;10.88;;;;;;;0.27;58.35;101215.16;5020614;28;20060;-82
2022/03/10 06:17:29;;;;;;;17.77;11.23;;;;;;;0.27;58.40;101214.31;5032932;28;20434;-83
2022/03/10 06:19:57;;;;;;;16.33;12.05;;;;;;;0.28;58.44;101219.59;5032536;28;20494;-83
2022/03/10 06:22:29;;;;;;;18.20;12.00;;;;;;;0.28;58.67;101222.31;5024757;28;20053;-83
2022/03/10 06:24:58;;;;;;;18.77;12.23;;;;;;;0.26;58.86;101224.44;5018831;28;20053;-83
2022/03/10 06:27:26;;;;;;;16.58;11.23;;;;;;;0.28;58.64;101226.97;5027903;28;20517;-82
2022/03/10 06:29:55;;;;;;;15.93;10.90;;;;;;;0.36;58.81;101215.72;5027539;28;20058;-83
2022/03/10 06:32:23;;;;;;;17.52;11.60;;;;;;;0.45;58.48;101221.72;5031964;28;20049;-83
2022/03/10 06:34:53;;;;;;;21.17;13.75;;;;;;;0.47;58.36;101222.34;5034454;28;20075;-83
2022/03/10 06:37:21;;;;;;;24.00;13.85;;;;;;;0.69;57.89;101228.16;5034188;28;20481;-83
2022/03/10 06:39:48;;;;;;;19.63;13.40;;;;;;;1.26;56.96;101227.81;5034524;28;20737;-83
2022/03/10 06:42:17;;;;;;;21.48;12.77;;;;;;;1.96;55.45;101240.84;5033755;28;20046;-83
2022/03/10 06:44:44;;;;;;;20.55;13.68;;;;;;;2.66;53.49;101233.59;5033166;28;20049;-86
2022/03/10 06:47:12;;;;;;;18.25;12.30;;;;;;;3.34;52.32;101232.75;5036837;28;20746;-85
2022/03/10 06:49:40;;;;;;;20.13;12.57;;;;;;;4.01;51.17;101239.38;5037924;28;20394;-86
2022/03/10 06:52:08;;;;;;;19.17;12.73;;;;;;;4.77;48.80;101238.81;5036754;28;20058;-86
2022/03/10 06:54:37;;;;;;;17.08;11.82;;;;;;;5.53;47.28;101229.69;5029405;28;20418;-84
2022/03/10 06:57:05;;;;;;;18.27;12.43;;;;;;;6.30;45.63;101236.69;5038992;28;20470;-87
2022/03/10 06:59:34;;;;;;;18.58;11.98;;;;;;;6.98;44.36;101227.59;5035481;28;20050;-87
2022/03/10 07:02:01;;;;;;;21.17;12.82;;;;;;;7.76;42.94;101227.47;5037500;28;20069;-87
2022/03/10 07:04:29;;;;;;;19.05;13.63;;;;;;;8.52;40.85;101222.94;5032329;28;20061;-86
2022/03/10 07:06:56;;;;;;;19.25;12.32;;;;;;;9.37;39.12;101227.56;5039765;28;20053;-81
2022/03/10 07:09:23;;;;;;;18.45;12.27;;;;;;;10.16;37.79;101228.34;5036473;28;20061;-81
2022/03/10 07:11:50;;;;;;;16.98;13.27;;;;;;;10.95;36.14;101227.19;5038414;28;20448;-82
2022/03/10 07:14:18;;;;;;;20.38;14.48;;;;;;;11.73;34.51;101211.81;5037337;28;20423;-81
2022/03/10 07:16:47;;;;;;;23.77;15.73;;;;;;;12.51;33.10;101214.09;5029179;28;20080;-82
2022/03/10 07:19:14;;;;;;;18.87;14.33;;;;;;;13.16;32.19;101224.22;5031403;28;20394;-83
2022/03/10 07:21:41;;;;;;;17.60;13.25;;;;;;;13.91;30.27;101217.16;5037673;28;20520;-84
2022/03/10 07:24:09;;;;;;;17.65;14.25;;;;;;;14.59;29.55;101229.13;5030437;28;20053;-84
2022/03/10 07:26:37;;;;;;;15.55;13.30;;;;;;;15.15;28.23;101223.03;5038787;28;20046;-83
2022/03/10 07:29:07;;;;;;;19.20;13.73;;;;;;;15.77;27.59;101219.97;5036524;28;20060;-84
2022/03/10 07:31:35;;;;;;;14.73;12.05;;;;;;;16.43;26.68;101224.47;5020380;28;20054;-84
2022/03/10 07:34:03;;;;;;;15.35;11.75;;;;;;;17.09;25.42;101229.63;5023765;28;20057;-84
2022/03/10 07:36:32;;;;;;;14.35;12.18;;;;;;;17.70;24.53;101215.13;5035045;28;20411;-84
2022/03/10 07:39:02;;;;;;;18.65;12.57;;;;;;;18.04;24.00;101216.00;5027774;28;20049;-84
2022/03/10 07:41:29;;;;;;;12.98;11.05;;;;;;;18.39;23.40;101219.25;5028742;28;20064;-84
2022/03/10 07:43:57;;;;;;;15.25;11.52;;;;;;;18.67;22.67;101213.78;5052794;28;20061;-83
2022/03/10 07:46:24;;;;;;;17.25;11.85;;;;;;;18.96;22.41;101214.78;5041759;28;20045;-83
2022/03/10 07:48:52;;;;;;;17.00;12.75;;;;;;;19.44;21.84;101220.69;5032428;28;20053;-82
2022/03/10 07:51:24;;;;;;;16.23;11.63;;;;;;;19.91;21.21;101222.09;5041327;28;20410;-82
2022/03/10 07:53:54;;;;;;;14.38;11.70;;;;;;;20.40;21.19;101213.34;5040182;28;20056;-83
2022/03/10 07:56:23;;;;;;;15.60;12.05;;;;;;;20.89;20.22;101210.19;5046546;28;20052;-83
2022/03/10 07:58:51;;;;;;;12.45;11.15;;;;;;;21.22;20.06;101211.78;5028317;28;20061;-83
2022/03/10 08:01:18;;;;;;;13.98;11.98;;;;;;;21.89;19.28;101203.13;5046733;28;20053;-84
2022/03/10 08:03:47;;;;;;;14.05;11.60;;;;;;;22.47;18.67;101202.25;5049122;28;20054;-84
2022/03/10 08:06:14;;;;;;;17.60;12.23;;;;;;;23.03;18.38;101201.56;5051071;28;20059;-84
2022/03/10 08:08:43;;;;;;;14.85;13.00;;;;;;;23.40;17.95;101203.75;5045275;28;20045;-84
2022/03/10 08:11:11;;;;;;;19.40;12.70;;;;;;;24.11;17.89;101203.03;5042196;28;20049;-84
2022/03/10 08:13:38;;;;;;;13.15;11.75;;;;;;;24.66;16.90;101200.34;5045351;28;20061;-83
2022/03/10 08:16:06;;;;;;;15.90;12.35;;;;;;;25.18;16.50;101190.94;5045423;28;20057;-84
2022/03/10 08:18:33;;;;;;;13.75;12.23;;;;;;;25.63;16.32;101194.50;5042365;28;20049;-84
2022/03/10 08:21:01;;;;;;;13.98;12.20;;;;;;;26.09;16.07;101183.25;5041637;28;20054;-84
2022/03/10 08:23:28;;;;;;;14.43;11.48;;;;;;;26.51;15.66;101186.59;5030015;28;20056;-84
2022/03/10 08:25:57;;;;;;;12.80;11.50;;;;;;;27.20;14.58;101191.06;5034108;28;20064;-83
2022/03/10 08:28:26;;;;;;;13.35;10.90;;;;;;;27.66;14.15;101180.75;5044935;28;20112;-84
2022/03/10 08:30:54;;;;;;;15.52;12.10;;;;;;;27.96;14.23;101179.41;5042812;28;20064;-84
2022/03/10 08:33:21;;;;;;;13.50;11.35;;;;;;;28.40;13.91;101177.91;5056169;28;20057;-84
2022/03/10 08:35:49;;;;;;;14.35;12.23;;;;;;;28.93;12.84;101165.97;5045295;28;20053;-82
2022/03/10 08:38:16;;;;;;;13.23;10.25;;;;;;;29.24;12.90;101157.50;5061194;28;20053;-84
2022/03/10 08:40:43;;;;;;;14.65;11.23;;;;;;;29.68;12.33;101157.78;5047316;28;20068;-84
2022/03/10 08:43:13;;;;;;;17.77;10.60;;;;;;;30.04;12.37;101152.38;5046308;28;20063;-83
2022/03/10 08:45:41;;;;;;;14.45;10.82;;;;;;;30.40;12.14;101148.97;5047675;28;20063;-84
2022/03/10 08:48:09;;;;;;;17.38;10.90;;;;;;;30.48;11.99;101146.81;5043135;28;20041;-84
2022/03/10 08:50:36;;;;;;;15.87;11.23;;;;;;;30.77;11.58;101152.09;5041998;28;20063;-85
2022/03/10 08:53:04;;;;;;;12.80;11.13;;;;;;;31.10;11.34;101148.19;5044887;28;20482;-83
2022/03/10 08:55:31;;;;;;;11.57;10.48;;;;;;;31.32;11.28;101148.56;5046170;28;20050;-83
2022/03/10 08:58:00;;;;;;;11.63;10.43;;;;;;;31.67;11.44;101149.13;5055672;28;20061;-84
2022/03/10 09:00:29;;;;;;;12.68;11.05;;;;;;;31.78;11.74;101151.75;5040347;28;20053;-83
2022/03/10 09:02:57;;;;;;;11.73;10.38;;;;;;;32.18;11.52;101151.69;5042937;28;20053;-85
2022/03/10 09:05:24;;;;;;;11.65;10.30;;;;;;;32.27;11.26;101154.75;5040129;28;20046;-84
2022/03/10 09:07:52;;;;;;;13.68;10.52;;;;;;;32.68;11.08;101150.47;5034111;28;20050;-84
2022/03/10 09:10:20;;;;;;;11.73;10.57;;;;;;;32.81;11.13;101149.75;5041369;28;20049;-84
2022/03/10 09:12:47;;;;;;;12.77;11.55;;;;;;;33.10;11.02;101147.72;5049393;28;20508;-84
2022/03/10 09:15:14;;;;;;;11.48;10.30;;;;;;;33.20;11.04;101144.97;5057028;28;20046;-85
2022/03/10 09:17:43;;;;;;;11.93;10.73;;;;;;;33.63;11.12;101138.00;5041885;28;20049;-84
2022/03/10 09:20:13;;;;;;;12.00;10.60;;;;;;;33.48;11.12;101144.16;5039745;28;20053;-85
2022/03/10 09:22:40;;;;;;;11.57;10.35;;;;;;;33.71;11.72;101133.63;5038961;28;20411;-85
2022/03/10 09:25:09;;;;;;;12.75;11.45;;;;;;;33.99;11.40;101136.88;5040818;28;20049;-85
2022/03/10 09:27:36;;;;;;;;;;;;;;;33.67;11.49;101132.91;5040806;28;20045;-85
2022/03/10 09:30:04;;;;;;;12.38;10.93;;;;;;;34.17;11.74;101131.38;5032578;28;19922;-85
2022/03/10 09:32:34;;;;;;;13.48;12.18;;;;;;;34.69;11.54;101132.94;5038052;28;20061;-84
2022/03/10 09:35:03;;;;;;;12.32;10.88;;;;;;;34.63;11.35;101134.78;5041059;28;20049;-84
2022/03/10 09:37:30;;;;;;;12.40;11.20;;;;;;;35.19;11.04;101123.75;5041473;28;20053;-84
2022/03/10 09:39:58;;;;;;;11.77;10.68;;;;;;;35.32;11.58;101127.38;5033349;28;20053;-84
2022/03/10 09:42:29;;;;;;;11.55;10.45;;;;;;;35.86;11.57;101120.31;5034056;28;20064;-83
2022/03/10 09:44:58;;;;;;;10.75;9.65;;;;;;;36.26;11.00;101110.84;5040660;28;20080;-83
2022/03/10 09:47:27;;;;;;;13.70;11.07;;;;;;;36.55;10.52;101118.34;5043184;28;20076;-83
2022/03/10 09:49:56;;;;;;;12.52;11.32;;;;;;;37.00;10.44;101118.88;5027527;28;20058;-84
2022/03/10 09:52:25;;;;;;;11.77;10.57;;;;;;;36.70;9.33;101113.53;5041823;28;20064;-84
2022/03/10 09:54:52;;;;;;;10.82;9.80;;;;;;;35.95;7.81;101111.69;5040986;28;20052;-84
2022/03/10 09:57:22;;;;;;;10.27;9.27;;;;;;;34.82;8.12;101101.06;5045335;28;20257;-84
2022/03/10 09:59:50;;;;;;;10.27;9.07;;;;;;;32.91;8.38;101116.91;5035730;28;20056;-84
2022/03/10 10:02:18;;;;;;;9.85;8.95;;;;;;;32.15;8.74;101112.25;5035632;28;20045;-84
2022/03/10 10:04:46;;;;;;;9.27;8.38;;;;;;;32.46;8.39;101115.56;5037484;28;20057;-84
2022/03/10 10:07:14;;;;;;;;;;;;;;;30.69;9.07;101106.19;5042225;28;20056;-83
2022/03/10 10:09:44;;;;;;;11.57;9.02;;;;;;;31.78;9.27;101105.66;5032524;28;19937;-84
2022/03/10 10:12:16;;;;;;;8.65;7.85;;;;;;;32.80;9.06;101091.22;5046593;28;20065;-85
2022/03/10 10:14:45;;;;;;;10.63;8.70;;;;;;;32.51;8.52;101094.84;5035906;28;20058;-82
2022/03/10 10:17:13;;;;;;;9.30;8.23;;;;;;;30.61;8.82;101087.44;5033872;28;20052;-82
2022/03/10 10:19:42;;;;;;;8.95;8.05;;;;;;;30.91;9.30;101089.38;5025194;28;20061;-79
2022/03/10 10:22:10;;;;;;;;;;;;;;;28.71;9.95;101090.03;5038266;28;20317;-82
2022/03/10 10:24:38;;;;;;;9.93;8.45;;;;;;;29.86;9.42;101095.22;5039722;28;20181;-83
2022/03/10 10:27:18;;;;;;;9.18;8.20;;;;;;;29.71;9.77;101082.28;5049442;28;20052;-83
2022/03/10 10:29:47;;;;;;;8.98;8.07;;;;;;;29.99;9.65;101077.34;5057942;28;20064;-83
2022/03/10 10:32:25;;;;;;;9.05;7.65;;;;;;;29.93;9.62;101077.84;5030013;28;20064;-83
2022/03/10 10:35:03;;;;;;;10.70;7.82;;;;;;;30.11;9.96;101076.75;5042289;28;20053;-82
2022/03/10 10:37:31;;;;;;;8.90;7.55;;;;;;;30.23;9.86;101067.53;5041722;28;20057;-83
2022/03/10 10:39:59;;;;;;;8.68;7.80;;;;;;;31.90;8.33;101064.63;5041588;28;20060;-83
2022/03/10 10:42:29;;;;;;;9.07;7.70;;;;;;;32.54;8.28;101068.00;5055199;28;20060;-83
2022/03/10 10:45:00;;;;;;;8.48;7.32;;;;;;;30.51;9.01;101063.38;5058487;28;20054;-84
2022/03/10 10:47:27;;;;;;;7.63;6.65;;;;;;;31.24;9.40;101062.81;5042287;28;20072;-83
2022/03/10 10:50:00;;;;;;;7.77;7.00;;;;;;;32.35;8.54;101069.69;5043979;28;20053;-83
2022/03/10 10:52:38;;;;;;;6.00;5.40;;;;;;;31.54;8.90;101064.63;5043354;28;20049;-84
2022/03/10 10:55:10;;;;;;;5.70;5.10;;;;;;;31.95;8.76;101064.09;5042863;28;20065;-84
2022/03/10 10:57:40;;;;;;;6.45;5.85;;;;;;;32.10;8.85;101064.56;5043635;28;20526;-83
2022/03/10 11:00:10;;;;;;;7.57;5.60;;;;;;;31.75;8.66;101061.28;5045162;28;20068;-82
2022/03/10 11:02:43;;;;;;;5.57;4.68;;;;;;;32.18;8.74;101050.00;5045826;28;20056;-82
2022/03/10 11:05:14;;;;;;;5.57;4.88;;;;;;;33.28;8.09;101048.22;5044319;28;20061;-83
2022/03/10 11:07:42;;;;;;;5.80;5.07;;;;;;;34.03;8.25;101042.97;5044738;28;20057;-83
2022/03/10 11:10:11;;;;;;;5.85;5.25;;;;;;;33.74;7.87;101046.78;5044287;28;20050;-85
2022/03/10 11:12:44;;;;;;;5.13;4.35;;;;;;;32.01;8.60;101049.19;5042349;28;20386;-83
2022/03/10 11:15:14;;;;;;;4.45;4.05;;;;;;;32.46;8.40;101043.47;5042863;28;20049;-83
2022/03/10 11:17:44;;;;;;;5.10;3.80;;;;;;;31.47;8.82;101045.44;5042665;28;20053;-82
2022/03/10 11:20:12;;;;;;;5.95;4.10;;;;;;;31.76;8.71;101050.56;5043090;28;20058;-83
2022/03/10 11:22:52;;;;;;;6.43;3.65;;;;;;;32.04;8.31;101054.03;5042724;28;20041;-81
2022/03/10 11:25:31;;;;;;;4.43;3.50;;;;;;;32.05;8.63;101042.06;5032863;28;20061;-84
2022/03/10 11:28:05;;;;;;;3.72;3.08;;;;;;;32.12;8.59;101043.94;5039519;28;20053;-84
2022/03/10 11:30:34;;;;;;;3.17;2.85;;;;;;;32.27;8.71;101048.06;5042148;28;20049;-84
2022/03/10 11:33:06;;;;;;;2.92;2.60;;;;;;;32.16;8.44;101033.94;5038112;28;20390;-84